Minneapolis (MSP/KMSP)

Information

Location
Minneapolis, MN
Local Time
15:39 / 3:39 pm
GMT Time
20:39 / 8:39 pm
Gates
B10,C27
No FAA reported delays
METAR KMSP 231953Z 31018G23KT 10SM SCT043 SCT200 13/05 A2978 RMK AO2 PK WND 30026/1919 SLP086 T01330050
TAF KMSP 231734Z 2318/2424 30017G27KT P6SM BKN040 TEMPO 2321/2323 BKN028 FM240600 32023G38KT P6SM BKN035 PROB30 2406/2411 -SHRA